sensor_id;sensor_type;location;lat;lon;timestamp;P1;durP1;ratioP1;P2;durP2;ratioP2
13799;SDS011;6971;50.028;9.258;2024-02-28T00:00:07;13.23;;;6.80;;
13799;SDS011;6971;50.028;9.258;2024-02-28T00:05:10;11.53;;;5.47;;
13799;SDS011;6971;50.028;9.258;2024-02-28T00:10:11;10.97;;;6.33;;
13799;SDS011;6971;50.028;9.258;2024-02-28T00:15:11;12.70;;;6.50;;
13799;SDS011;6971;50.028;9.258;2024-02-28T00:20:11;10.27;;;5.40;;
13799;SDS011;6971;50.028;9.258;2024-02-28T00:25:13;13.80;;;6.67;;
13799;SDS011;6971;50.028;9.258;2024-02-28T00:30:16;12.97;;;6.33;;
13799;SDS011;6971;50.028;9.258;2024-02-28T00:35:17;13.47;;;6.50;;
13799;SDS011;6971;50.028;9.258;2024-02-28T00:40:17;9.97;;;6.03;;
13799;SDS011;6971;50.028;9.258;2024-02-28T00:45:18;12.73;;;6.07;;
13799;SDS011;6971;50.028;9.258;2024-02-28T00:50:18;11.10;;;5.60;;
13799;SDS011;6971;50.028;9.258;2024-02-28T00:55:18;8.13;;;5.10;;
13799;SDS011;6971;50.028;9.258;2024-02-28T01:00:19;9.00;;;5.30;;
13799;SDS011;6971;50.028;9.258;2024-02-28T01:05:19;12.73;;;5.40;;
13799;SDS011;6971;50.028;9.258;2024-02-28T01:10:20;11.57;;;6.23;;
13799;SDS011;6971;50.028;9.258;2024-02-28T01:15:20;9.67;;;4.93;;
13799;SDS011;6971;50.028;9.258;2024-02-28T01:20:20;11.47;;;5.97;;
13799;SDS011;6971;50.028;9.258;2024-02-28T01:25:21;12.77;;;6.50;;
13799;SDS011;6971;50.028;9.258;2024-02-28T01:30:21;12.60;;;6.07;;
13799;SDS011;6971;50.028;9.258;2024-02-28T01:35:21;12.87;;;6.60;;
13799;SDS011;6971;50.028;9.258;2024-02-28T01:40:22;13.70;;;5.80;;
13799;SDS011;6971;50.028;9.258;2024-02-28T01:45:22;11.77;;;5.77;;
13799;SDS011;6971;50.028;9.258;2024-02-28T01:50:23;12.60;;;5.50;;
13799;SDS011;6971;50.028;9.258;2024-02-28T01:55:23;9.30;;;5.00;;
13799;SDS011;6971;50.028;9.258;2024-02-28T02:00:24;11.67;;;6.43;;
13799;SDS011;6971;50.028;9.258;2024-02-28T02:05:25;8.57;;;5.23;;
13799;SDS011;6971;50.028;9.258;2024-02-28T02:10:25;11.37;;;5.77;;
13799;SDS011;6971;50.028;9.258;2024-02-28T02:15:26;16.53;;;6.13;;
13799;SDS011;6971;50.028;9.258;2024-02-28T02:20:26;10.67;;;5.97;;
13799;SDS011;6971;50.028;9.258;2024-02-28T02:25:32;11.93;;;5.60;;
13799;SDS011;6971;50.028;9.258;2024-02-28T02:30:32;14.97;;;6.33;;
13799;SDS011;6971;50.028;9.258;2024-02-28T02:35:33;11.70;;;6.37;;
13799;SDS011;6971;50.028;9.258;2024-02-28T02:40:34;11.73;;;6.60;;
13799;SDS011;6971;50.028;9.258;2024-02-28T02:45:34;13.90;;;6.57;;
13799;SDS011;6971;50.028;9.258;2024-02-28T02:50:35;13.87;;;6.20;;
13799;SDS011;6971;50.028;9.258;2024-02-28T02:55:35;15.73;;;6.70;;
13799;SDS011;6971;50.028;9.258;2024-02-28T03:00:36;12.67;;;6.27;;
13799;SDS011;6971;50.028;9.258;2024-02-28T03:05:36;13.13;;;6.60;;
13799;SDS011;6971;50.028;9.258;2024-02-28T03:10:36;11.43;;;5.90;;
13799;SDS011;6971;50.028;9.258;2024-02-28T03:15:37;11.87;;;6.33;;
13799;SDS011;6971;50.028;9.258;2024-02-28T03:20:37;9.57;;;5.67;;
13799;SDS011;6971;50.028;9.258;2024-02-28T03:25:39;11.40;;;5.97;;
13799;SDS011;6971;50.028;9.258;2024-02-28T03:30:39;14.33;;;5.97;;
13799;SDS011;6971;50.028;9.258;2024-02-28T03:35:39;12.77;;;5.30;;
13799;SDS011;6971;50.028;9.258;2024-02-28T03:40:40;10.40;;;6.07;;
13799;SDS011;6971;50.028;9.258;2024-02-28T03:45:41;18.00;;;7.23;;
13799;SDS011;6971;50.028;9.258;2024-02-28T03:50:41;13.87;;;6.33;;
13799;SDS011;6971;50.028;9.258;2024-02-28T03:55:41;12.00;;;6.23;;
13799;SDS011;6971;50.028;9.258;2024-02-28T04:00:44;11.37;;;5.63;;
13799;SDS011;6971;50.028;9.258;2024-02-28T04:05:44;15.37;;;6.03;;
13799;SDS011;6971;50.028;9.258;2024-02-28T04:10:45;11.97;;;6.60;;
13799;SDS011;6971;50.028;9.258;2024-02-28T04:15:45;13.50;;;6.20;;
13799;SDS011;6971;50.028;9.258;2024-02-28T04:20:46;10.90;;;5.60;;
13799;SDS011;6971;50.028;9.258;2024-02-28T04:25:47;11.77;;;5.63;;
13799;SDS011;6971;50.028;9.258;2024-02-28T04:30:47;9.53;;;5.00;;
13799;SDS011;6971;50.028;9.258;2024-02-28T04:35:47;14.37;;;6.27;;
13799;SDS011;6971;50.028;9.258;2024-02-28T04:40:48;14.27;;;6.57;;
13799;SDS011;6971;50.028;9.258;2024-02-28T04:45:49;17.27;;;6.70;;
13799;SDS011;6971;50.028;9.258;2024-02-28T04:50:51;11.83;;;6.27;;
13799;SDS011;6971;50.028;9.258;2024-02-28T04:55:51;16.03;;;6.83;;
13799;SDS011;6971;50.028;9.258;2024-02-28T05:00:52;16.20;;;6.07;;
13799;SDS011;6971;50.028;9.258;2024-02-28T05:05:52;12.73;;;5.50;;
13799;SDS011;6971;50.028;9.258;2024-02-28T05:10:52;11.37;;;5.90;;
13799;SDS011;6971;50.028;9.258;2024-02-28T05:15:53;13.27;;;6.60;;
13799;SDS011;6971;50.028;9.258;2024-02-28T05:20:53;14.47;;;6.63;;
13799;SDS011;6971;50.028;9.258;2024-02-28T05:25:53;13.13;;;6.07;;
13799;SDS011;6971;50.028;9.258;2024-02-28T05:30:54;9.97;;;5.60;;
13799;SDS011;6971;50.028;9.258;2024-02-28T05:35:54;11.67;;;6.13;;
13799;SDS011;6971;50.028;9.258;2024-02-28T05:40:55;12.40;;;5.77;;
13799;SDS011;6971;50.028;9.258;2024-02-28T05:45:55;13.77;;;7.00;;
13799;SDS011;6971;50.028;9.258;2024-02-28T05:50:55;12.23;;;5.67;;
13799;SDS011;6971;50.028;9.258;2024-02-28T05:55:56;15.13;;;7.23;;
13799;SDS011;6971;50.028;9.258;2024-02-28T06:00:57;15.07;;;6.17;;
13799;SDS011;6971;50.028;9.258;2024-02-28T06:05:57;13.60;;;7.83;;
13799;SDS011;6971;50.028;9.258;2024-02-28T06:10:58;16.53;;;7.13;;
13799;SDS011;6971;50.028;9.258;2024-02-28T06:15:58;12.83;;;6.43;;
13799;SDS011;6971;50.028;9.258;2024-02-28T06:20:58;11.63;;;6.23;;
13799;SDS011;6971;50.028;9.258;2024-02-28T06:26:00;16.50;;;7.30;;
13799;SDS011;6971;50.028;9.258;2024-02-28T06:31:01;12.97;;;6.27;;
13799;SDS011;6971;50.028;9.258;2024-02-28T06:36:01;20.13;;;8.53;;
13799;SDS011;6971;50.028;9.258;2024-02-28T06:41:04;15.37;;;7.07;;
13799;SDS011;6971;50.028;9.258;2024-02-28T06:46:05;16.07;;;7.50;;
13799;SDS011;6971;50.028;9.258;2024-02-28T06:51:05;13.73;;;6.27;;
13799;SDS011;6971;50.028;9.258;2024-02-28T06:56:06;15.03;;;7.23;;
13799;SDS011;6971;50.028;9.258;2024-02-28T07:01:06;13.03;;;7.37;;
13799;SDS011;6971;50.028;9.258;2024-02-28T07:06:06;17.40;;;8.13;;
13799;SDS011;6971;50.028;9.258;2024-02-28T07:11:13;29.07;;;15.43;;
13799;SDS011;6971;50.028;9.258;2024-02-28T07:16:14;32.30;;;14.53;;
13799;SDS011;6971;50.028;9.258;2024-02-28T07:21:15;34.13;;;16.03;;
13799;SDS011;6971;50.028;9.258;2024-02-28T07:26:16;33.13;;;15.27;;
13799;SDS011;6971;50.028;9.258;2024-02-28T07:31:16;33.17;;;15.03;;
13799;SDS011;6971;50.028;9.258;2024-02-28T07:36:17;25.70;;;12.73;;
13799;SDS011;6971;50.028;9.258;2024-02-28T07:41:17;23.57;;;12.43;;
13799;SDS011;6971;50.028;9.258;2024-02-28T07:46:18;32.30;;;12.93;;
13799;SDS011;6971;50.028;9.258;2024-02-28T07:51:18;28.03;;;13.70;;
13799;SDS011;6971;50.028;9.258;2024-02-28T07:56:19;35.50;;;15.80;;
13799;SDS011;6971;50.028;9.258;2024-02-28T08:01:20;26.90;;;13.53;;
13799;SDS011;6971;50.028;9.258;2024-02-28T08:06:22;32.10;;;16.03;;
13799;SDS011;6971;50.028;9.258;2024-02-28T08:11:22;31.43;;;12.80;;
13799;SDS011;6971;50.028;9.258;2024-02-28T08:16:23;27.30;;;11.60;;
13799;SDS011;6971;50.028;9.258;2024-02-28T08:21:23;28.60;;;13.07;;
13799;SDS011;6971;50.028;9.258;2024-02-28T08:26:24;22.93;;;10.80;;
13799;SDS011;6971;50.028;9.258;2024-02-28T08:31:25;20.83;;;9.27;;
13799;SDS011;6971;50.028;9.258;2024-02-28T08:36:25;20.27;;;9.60;;
13799;SDS011;6971;50.028;9.258;2024-02-28T08:41:26;17.67;;;8.30;;
13799;SDS011;6971;50.028;9.258;2024-02-28T08:46:26;15.83;;;8.00;;
13799;SDS011;6971;50.028;9.258;2024-02-28T08:51:26;16.17;;;8.23;;
13799;SDS011;6971;50.028;9.258;2024-02-28T08:56:27;16.07;;;8.07;;
13799;SDS011;6971;50.028;9.258;2024-02-28T09:01:27;14.73;;;6.97;;
13799;SDS011;6971;50.028;9.258;2024-02-28T09:06:27;15.10;;;7.57;;
13799;SDS011;6971;50.028;9.258;2024-02-28T09:11:28;14.13;;;7.30;;
13799;SDS011;6971;50.028;9.258;2024-02-28T09:16:28;14.40;;;6.90;;
13799;SDS011;6971;50.028;9.258;2024-02-28T09:21:29;13.03;;;7.70;;
13799;SDS011;6971;50.028;9.258;2024-02-28T09:26:29;12.43;;;8.10;;
13799;SDS011;6971;50.028;9.258;2024-02-28T09:31:30;11.50;;;6.37;;
13799;SDS011;6971;50.028;9.258;2024-02-28T09:36:30;12.97;;;6.93;;
13799;SDS011;6971;50.028;9.258;2024-02-28T09:41:30;13.47;;;7.00;;
13799;SDS011;6971;50.028;9.258;2024-02-28T09:46:31;13.83;;;7.90;;
13799;SDS011;6971;50.028;9.258;2024-02-28T09:51:34;11.50;;;6.90;;
13799;SDS011;6971;50.028;9.258;2024-02-28T09:56:35;11.67;;;7.87;;
13799;SDS011;6971;50.028;9.258;2024-02-28T10:01:37;11.70;;;6.77;;
13799;SDS011;6971;50.028;9.258;2024-02-28T10:06:43;11.17;;;6.10;;
13799;SDS011;6971;50.028;9.258;2024-02-28T10:11:44;12.53;;;6.93;;
13799;SDS011;6971;50.028;9.258;2024-02-28T10:16:46;12.93;;;6.70;;
13799;SDS011;6971;50.028;9.258;2024-02-28T10:21:46;10.23;;;6.07;;
13799;SDS011;6971;50.028;9.258;2024-02-28T10:26:47;11.57;;;6.90;;
13799;SDS011;6971;50.028;9.258;2024-02-28T10:31:57;10.60;;;6.13;;
13799;SDS011;6971;50.028;9.258;2024-02-28T10:36:57;11.47;;;6.47;;
13799;SDS011;6971;50.028;9.258;2024-02-28T10:41:59;12.67;;;7.27;;
13799;SDS011;6971;50.028;9.258;2024-02-28T10:47:01;6.80;;;5.20;;
13799;SDS011;6971;50.028;9.258;2024-02-28T10:52:02;7.87;;;5.27;;
13799;SDS011;6971;50.028;9.258;2024-02-28T10:57:03;10.77;;;6.63;;
13799;SDS011;6971;50.028;9.258;2024-02-28T11:02:05;10.33;;;5.57;;
13799;SDS011;6971;50.028;9.258;2024-02-28T11:07:06;11.10;;;7.40;;
13799;SDS011;6971;50.028;9.258;2024-02-28T11:12:06;12.47;;;5.97;;
13799;SDS011;6971;50.028;9.258;2024-02-28T11:17:28;13.13;;;7.97;;
13799;SDS011;6971;50.028;9.258;2024-02-28T11:22:29;10.33;;;6.60;;
13799;SDS011;6971;50.028;9.258;2024-02-28T11:27:32;10.03;;;7.20;;
13799;SDS011;6971;50.028;9.258;2024-02-28T11:32:33;12.90;;;7.80;;
13799;SDS011;6971;50.028;9.258;2024-02-28T11:37:33;10.43;;;7.77;;
13799;SDS011;6971;50.028;9.258;2024-02-28T11:42:34;11.10;;;6.93;;
13799;SDS011;6971;50.028;9.258;2024-02-28T11:47:37;13.20;;;7.73;;
13799;SDS011;6971;50.028;9.258;2024-02-28T11:52:39;11.70;;;6.60;;
13799;SDS011;6971;50.028;9.258;2024-02-28T11:57:40;13.40;;;8.00;;
13799;SDS011;6971;50.028;9.258;2024-02-28T12:02:40;14.53;;;9.70;;
13799;SDS011;6971;50.028;9.258;2024-02-28T12:07:41;11.20;;;6.03;;
13799;SDS011;6971;50.028;9.258;2024-02-28T12:12:41;13.10;;;6.63;;
13799;SDS011;6971;50.028;9.258;2024-02-28T12:17:42;11.83;;;6.63;;
13799;SDS011;6971;50.028;9.258;2024-02-28T12:22:43;13.43;;;7.90;;
13799;SDS011;6971;50.028;9.258;2024-02-28T12:27:43;12.90;;;7.77;;
13799;SDS011;6971;50.028;9.258;2024-02-28T12:32:43;11.80;;;6.97;;
13799;SDS011;6971;50.028;9.258;2024-02-28T12:37:44;12.80;;;7.77;;
13799;SDS011;6971;50.028;9.258;2024-02-28T12:42:44;12.50;;;7.60;;
13799;SDS011;6971;50.028;9.258;2024-02-28T12:47:44;11.37;;;6.53;;
13799;SDS011;6971;50.028;9.258;2024-02-28T12:52:45;12.23;;;7.13;;
13799;SDS011;6971;50.028;9.258;2024-02-28T12:57:45;8.43;;;4.37;;
13799;SDS011;6971;50.028;9.258;2024-02-28T13:02:46;8.50;;;5.07;;
13799;SDS011;6971;50.028;9.258;2024-02-28T13:07:46;6.80;;;3.87;;
13799;SDS011;6971;50.028;9.258;2024-02-28T13:12:46;12.27;;;6.97;;
13799;SDS011;6971;50.028;9.258;2024-02-28T13:17:47;6.07;;;4.33;;
13799;SDS011;6971;50.028;9.258;2024-02-28T13:22:49;7.03;;;4.43;;
13799;SDS011;6971;50.028;9.258;2024-02-28T13:27:51;5.53;;;3.67;;
13799;SDS011;6971;50.028;9.258;2024-02-28T13:32:51;7.90;;;5.33;;
13799;SDS011;6971;50.028;9.258;2024-02-28T13:37:51;5.47;;;3.97;;
13799;SDS011;6971;50.028;9.258;2024-02-28T13:42:53;8.50;;;5.47;;
13799;SDS011;6971;50.028;9.258;2024-02-28T13:47:53;7.70;;;4.83;;
13799;SDS011;6971;50.028;9.258;2024-02-28T13:52:53;8.63;;;5.37;;
13799;SDS011;6971;50.028;9.258;2024-02-28T13:57:54;6.80;;;4.47;;
13799;SDS011;6971;50.028;9.258;2024-02-28T14:02:54;6.47;;;3.63;;
13799;SDS011;6971;50.028;9.258;2024-02-28T14:07:55;6.73;;;5.70;;
13799;SDS011;6971;50.028;9.258;2024-02-28T14:12:56;3.73;;;2.80;;
13799;SDS011;6971;50.028;9.258;2024-02-28T14:17:56;7.10;;;4.00;;
13799;SDS011;6971;50.028;9.258;2024-02-28T14:22:57;4.53;;;3.30;;
13799;SDS011;6971;50.028;9.258;2024-02-28T14:27:58;5.50;;;4.07;;
13799;SDS011;6971;50.028;9.258;2024-02-28T14:32:59;7.97;;;5.03;;
13799;SDS011;6971;50.028;9.258;2024-02-28T14:37:59;8.10;;;5.30;;
13799;SDS011;6971;50.028;9.258;2024-02-28T14:42:59;8.47;;;5.17;;
13799;SDS011;6971;50.028;9.258;2024-02-28T14:48:00;7.50;;;4.37;;
13799;SDS011;6971;50.028;9.258;2024-02-28T14:53:00;7.70;;;5.50;;
13799;SDS011;6971;50.028;9.258;2024-02-28T14:58:00;5.30;;;3.37;;
13799;SDS011;6971;50.028;9.258;2024-02-28T15:03:01;5.60;;;3.07;;
13799;SDS011;6971;50.028;9.258;2024-02-28T15:08:02;6.23;;;3.33;;
13799;SDS011;6971;50.028;9.258;2024-02-28T15:13:03;5.03;;;3.73;;
13799;SDS011;6971;50.028;9.258;2024-02-28T15:18:04;8.07;;;4.17;;
13799;SDS011;6971;50.028;9.258;2024-02-28T15:23:04;5.47;;;3.60;;
13799;SDS011;6971;50.028;9.258;2024-02-28T15:28:06;10.23;;;6.50;;
13799;SDS011;6971;50.028;9.258;2024-02-28T15:33:06;7.07;;;4.40;;
13799;SDS011;6971;50.028;9.258;2024-02-28T15:38:07;5.40;;;4.73;;
13799;SDS011;6971;50.028;9.258;2024-02-28T15:43:08;4.73;;;4.07;;
13799;SDS011;6971;50.028;9.258;2024-02-28T15:48:08;3.20;;;2.17;;
13799;SDS011;6971;50.028;9.258;2024-02-28T15:53:09;5.03;;;3.50;;
13799;SDS011;6971;50.028;9.258;2024-02-28T15:58:09;4.87;;;3.30;;
13799;SDS011;6971;50.028;9.258;2024-02-28T16:03:09;2.70;;;2.27;;
13799;SDS011;6971;50.028;9.258;2024-02-28T16:08:10;3.77;;;2.67;;
13799;SDS011;6971;50.028;9.258;2024-02-28T16:13:10;3.73;;;2.43;;
13799;SDS011;6971;50.028;9.258;2024-02-28T16:18:11;3.47;;;2.40;;
13799;SDS011;6971;50.028;9.258;2024-02-28T16:23:13;4.40;;;3.37;;
13799;SDS011;6971;50.028;9.258;2024-02-28T16:28:14;5.43;;;2.53;;
13799;SDS011;6971;50.028;9.258;2024-02-28T16:33:14;3.40;;;2.03;;
13799;SDS011;6971;50.028;9.258;2024-02-28T16:38:17;2.90;;;1.70;;
13799;SDS011;6971;50.028;9.258;2024-02-28T16:43:17;3.00;;;2.10;;
13799;SDS011;6971;50.028;9.258;2024-02-28T16:48:17;3.17;;;2.10;;
13799;SDS011;6971;50.028;9.258;2024-02-28T16:53:18;3.03;;;1.80;;
13799;SDS011;6971;50.028;9.258;2024-02-28T16:58:18;3.80;;;2.30;;
13799;SDS011;6971;50.028;9.258;2024-02-28T17:03:19;2.10;;;1.40;;
13799;SDS011;6971;50.028;9.258;2024-02-28T17:08:20;2.90;;;1.80;;
13799;SDS011;6971;50.028;9.258;2024-02-28T17:13:21;3.43;;;1.83;;
13799;SDS011;6971;50.028;9.258;2024-02-28T17:18:21;2.53;;;1.60;;
13799;SDS011;6971;50.028;9.258;2024-02-28T17:23:22;2.87;;;2.03;;
13799;SDS011;6971;50.028;9.258;2024-02-28T17:28:25;2.80;;;1.67;;
13799;SDS011;6971;50.028;9.258;2024-02-28T17:33:25;2.30;;;2.00;;
13799;SDS011;6971;50.028;9.258;2024-02-28T17:38:26;3.53;;;2.00;;
13799;SDS011;6971;50.028;9.258;2024-02-28T17:43:26;2.70;;;2.10;;
13799;SDS011;6971;50.028;9.258;2024-02-28T17:48:27;3.07;;;2.17;;
13799;SDS011;6971;50.028;9.258;2024-02-28T17:53:34;2.60;;;2.20;;
13799;SDS011;6971;50.028;9.258;2024-02-28T17:58:34;2.50;;;1.83;;
13799;SDS011;6971;50.028;9.258;2024-02-28T18:03:35;2.87;;;2.00;;
13799;SDS011;6971;50.028;9.258;2024-02-28T18:08:35;4.13;;;2.27;;
13799;SDS011;6971;50.028;9.258;2024-02-28T18:13:37;2.23;;;1.90;;
13799;SDS011;6971;50.028;9.258;2024-02-28T18:18:37;2.60;;;1.97;;
13799;SDS011;6971;50.028;9.258;2024-02-28T18:23:37;6.30;;;1.93;;
13799;SDS011;6971;50.028;9.258;2024-02-28T18:28:38;2.30;;;1.83;;
13799;SDS011;6971;50.028;9.258;2024-02-28T18:33:38;1.73;;;1.50;;
13799;SDS011;6971;50.028;9.258;2024-02-28T18:38:38;3.33;;;1.90;;
13799;SDS011;6971;50.028;9.258;2024-02-28T18:43:39;3.67;;;2.13;;
13799;SDS011;6971;50.028;9.258;2024-02-28T18:48:40;7.00;;;2.40;;
13799;SDS011;6971;50.028;9.258;2024-02-28T18:53:40;5.30;;;2.00;;
13799;SDS011;6971;50.028;9.258;2024-02-28T18:58:43;3.57;;;1.90;;
13799;SDS011;6971;50.028;9.258;2024-02-28T19:03:44;2.33;;;1.63;;
13799;SDS011;6971;50.028;9.258;2024-02-28T19:08:44;3.13;;;1.93;;
13799;SDS011;6971;50.028;9.258;2024-02-28T19:13:49;6.40;;;2.00;;
13799;SDS011;6971;50.028;9.258;2024-02-28T19:18:50;2.97;;;1.43;;
13799;SDS011;6971;50.028;9.258;2024-02-28T19:23:50;2.90;;;1.73;;
13799;SDS011;6971;50.028;9.258;2024-02-28T19:28:52;3.63;;;1.90;;
13799;SDS011;6971;50.028;9.258;2024-02-28T19:33:52;5.27;;;2.13;;
13799;SDS011;6971;50.028;9.258;2024-02-28T19:38:53;4.30;;;1.90;;
13799;SDS011;6971;50.028;9.258;2024-02-28T19:43:53;2.40;;;2.10;;
13799;SDS011;6971;50.028;9.258;2024-02-28T19:48:53;2.90;;;1.80;;
13799;SDS011;6971;50.028;9.258;2024-02-28T19:53:54;2.43;;;1.77;;
13799;SDS011;6971;50.028;9.258;2024-02-28T19:58:54;3.83;;;1.77;;
13799;SDS011;6971;50.028;9.258;2024-02-28T20:03:55;2.40;;;2.03;;
13799;SDS011;6971;50.028;9.258;2024-02-28T20:08:55;2.40;;;1.90;;
13799;SDS011;6971;50.028;9.258;2024-02-28T20:13:55;4.30;;;2.13;;
13799;SDS011;6971;50.028;9.258;2024-02-28T20:18:56;2.10;;;1.60;;
13799;SDS011;6971;50.028;9.258;2024-02-28T20:23:56;2.17;;;1.47;;
13799;SDS011;6971;50.028;9.258;2024-02-28T20:28:57;2.60;;;1.73;;
13799;SDS011;6971;50.028;9.258;2024-02-28T20:33:57;3.47;;;2.13;;
13799;SDS011;6971;50.028;9.258;2024-02-28T20:39:00;4.60;;;1.87;;
13799;SDS011;6971;50.028;9.258;2024-02-28T20:44:00;3.67;;;1.90;;
13799;SDS011;6971;50.028;9.258;2024-02-28T20:49:00;2.90;;;2.07;;
13799;SDS011;6971;50.028;9.258;2024-02-28T20:54:01;2.90;;;1.97;;
13799;SDS011;6971;50.028;9.258;2024-02-28T20:59:01;1.93;;;1.60;;
13799;SDS011;6971;50.028;9.258;2024-02-28T21:04:01;2.13;;;1.13;;
13799;SDS011;6971;50.028;9.258;2024-02-28T21:09:02;2.10;;;1.57;;
13799;SDS011;6971;50.028;9.258;2024-02-28T21:14:02;2.83;;;1.37;;
13799;SDS011;6971;50.028;9.258;2024-02-28T21:19:04;1.83;;;1.43;;
13799;SDS011;6971;50.028;9.258;2024-02-28T21:24:04;2.13;;;1.60;;
13799;SDS011;6971;50.028;9.258;2024-02-28T21:29:07;7.27;;;2.10;;
13799;SDS011;6971;50.028;9.258;2024-02-28T21:34:08;1.63;;;1.40;;
13799;SDS011;6971;50.028;9.258;2024-02-28T21:39:08;1.73;;;1.20;;
13799;SDS011;6971;50.028;9.258;2024-02-28T21:44:09;2.13;;;1.93;;
13799;SDS011;6971;50.028;9.258;2024-02-28T21:49:09;3.07;;;2.00;;
13799;SDS011;6971;50.028;9.258;2024-02-28T21:54:09;4.77;;;3.20;;
13799;SDS011;6971;50.028;9.258;2024-02-28T21:59:10;3.57;;;1.87;;
13799;SDS011;6971;50.028;9.258;2024-02-28T22:04:10;3.03;;;1.60;;
13799;SDS011;6971;50.028;9.258;2024-02-28T22:09:10;2.60;;;1.80;;
13799;SDS011;6971;50.028;9.258;2024-02-28T22:14:11;3.30;;;1.70;;
13799;SDS011;6971;50.028;9.258;2024-02-28T22:19:11;2.17;;;1.77;;
13799;SDS011;6971;50.028;9.258;2024-02-28T22:24:13;3.37;;;2.60;;
13799;SDS011;6971;50.028;9.258;2024-02-28T22:29:13;3.07;;;1.80;;
13799;SDS011;6971;50.028;9.258;2024-02-28T22:34:14;2.43;;;2.03;;
13799;SDS011;6971;50.028;9.258;2024-02-28T22:39:16;2.60;;;1.77;;
13799;SDS011;6971;50.028;9.258;2024-02-28T22:44:16;1.60;;;1.40;;
13799;SDS011;6971;50.028;9.258;2024-02-28T22:49:17;3.07;;;1.70;;
13799;SDS011;6971;50.028;9.258;2024-02-28T22:54:17;5.13;;;3.30;;
13799;SDS011;6971;50.028;9.258;2024-02-28T22:59:18;3.47;;;1.80;;
13799;SDS011;6971;50.028;9.258;2024-02-28T23:04:18;1.43;;;1.33;;
13799;SDS011;6971;50.028;9.258;2024-02-28T23:09:19;1.70;;;1.50;;
13799;SDS011;6971;50.028;9.258;2024-02-28T23:14:19;1.93;;;1.37;;
13799;SDS011;6971;50.028;9.258;2024-02-28T23:19:19;2.30;;;1.90;;
13799;SDS011;6971;50.028;9.258;2024-02-28T23:24:20;2.03;;;1.83;;
13799;SDS011;6971;50.028;9.258;2024-02-28T23:29:21;1.60;;;1.40;;
13799;SDS011;6971;50.028;9.258;2024-02-28T23:34:21;4.73;;;1.90;;
13799;SDS011;6971;50.028;9.258;2024-02-28T23:39:21;1.77;;;1.43;;
13799;SDS011;6971;50.028;9.258;2024-02-28T23:44:22;1.40;;;1.30;;
13799;SDS011;6971;50.028;9.258;2024-02-28T23:49:22;6.40;;;2.53;;
13799;SDS011;6971;50.028;9.258;2024-02-28T23:54:22;2.03;;;1.60;;
13799;SDS011;6971;50.028;9.258;2024-02-28T23:59:23;3.47;;;2.13;;
